createdAt,value
2022-09-12T00:01:23.537Z,19.73
2022-09-12T00:03:58.797Z,18.85
2022-09-12T00:06:30.717Z,18.83
2022-09-12T00:08:59.859Z,19.65
2022-09-12T00:11:26.592Z,18.27
2022-09-12T00:13:59.524Z,20.55
2022-09-12T00:16:27.903Z,25.95
2022-09-12T00:18:54.710Z,21.40
2022-09-12T00:21:22.341Z,20.38
2022-09-12T00:23:50.260Z,21.08
2022-09-12T00:26:18.971Z,20.45
2022-09-12T00:28:45.846Z,20.75
2022-09-12T00:31:15.894Z,22.93
2022-09-12T00:33:43.278Z,24.50
2022-09-12T00:36:16.170Z,23.20
2022-09-12T00:38:43.476Z,26.67
2022-09-12T00:41:19.658Z,23.75
2022-09-12T00:43:52.165Z,26.20
2022-09-12T00:46:29.896Z,25.52
2022-09-12T00:49:11.473Z,25.73
2022-09-12T00:51:39.615Z,24.08
2022-09-12T00:54:12.411Z,27.77
2022-09-12T00:56:42.689Z,25.47
2022-09-12T00:59:17.439Z,31.73
2022-09-12T01:01:48.250Z,28.33
2022-09-12T01:04:16.835Z,27.08
2022-09-12T01:06:44.948Z,29.13
2022-09-12T01:09:20.511Z,26.77
2022-09-12T01:11:48.678Z,31.30
2022-09-12T01:14:16.781Z,28.90
2022-09-12T01:16:45.343Z,29.98
2022-09-12T01:19:36.755Z,29.15
2022-09-12T01:22:21.247Z,30.97
2022-09-12T01:24:59.515Z,30.50
2022-09-12T01:27:44.581Z,30.00
2022-09-12T01:30:29.304Z,28.95
2022-09-12T01:33:11.132Z,24.60
2022-09-12T01:35:56.906Z,33.23
2022-09-12T01:38:31.733Z,30.75
2022-09-12T01:41:39.016Z,31.35
2022-09-12T01:44:20.985Z,32.63
2022-09-12T01:46:56.333Z,32.55
2022-09-12T01:49:33.364Z,30.90
2022-09-12T01:52:20.248Z,35.55
2022-09-12T01:55:16.791Z,37.60
2022-09-12T01:57:50.282Z,25.52
2022-09-12T02:00:17.265Z,31.08
2022-09-12T02:03:04.395Z,30.87
2022-09-12T02:05:37.885Z,39.63
2022-09-12T02:08:11.861Z,33.00
2022-09-12T02:10:49.232Z,34.58
2022-09-12T02:13:22.104Z,31.70
2022-09-12T02:16:03.750Z,34.53
2022-09-12T02:18:33.801Z,33.92
2022-09-12T02:21:01.566Z,34.28
2022-09-12T02:23:31.283Z,37.38
2022-09-12T02:26:03.372Z,36.70
2022-09-12T02:28:35.018Z,42.10
2022-09-12T02:31:26.171Z,37.45
2022-09-12T02:34:22.064Z,45.10
2022-09-12T02:36:57.758Z,46.92
2022-09-12T02:39:24.889Z,48.83
2022-09-12T02:41:53.028Z,50.30
2022-09-12T02:44:20.592Z,56.60
2022-09-12T02:46:51.746Z,60.42
2022-09-12T02:49:18.836Z,58.85
2022-09-12T02:51:46.603Z,58.95
2022-09-12T02:54:15.559Z,53.57
2022-09-12T02:56:44.315Z,51.03
2022-09-12T02:59:16.332Z,51.75
2022-09-12T03:01:51.540Z,52.10
2022-09-12T03:04:41.985Z,57.90
2022-09-12T03:07:35.015Z,53.17
2022-09-12T03:10:13.282Z,59.65
2022-09-12T03:12:44.187Z,66.35
2022-09-12T03:15:37.583Z,63.05
2022-09-12T03:18:09.681Z,53.40
2022-09-12T03:24:23.360Z,55.72
2022-09-12T03:27:11.576Z,60.78
2022-09-12T03:29:40.509Z,66.90
2022-09-12T03:32:07.517Z,62.05
2022-09-12T03:34:33.991Z,70.13
2022-09-12T03:37:00.557Z,63.53
2022-09-12T03:39:28.049Z,61.80
2022-09-12T03:41:55.662Z,56.72
2022-09-12T03:44:22.507Z,58.55
2022-09-12T03:46:49.168Z,55.57
2022-09-12T03:49:16.392Z,60.97
2022-09-12T03:51:43.280Z,63.90
2022-09-12T03:54:11.143Z,58.08
2022-09-12T03:56:37.796Z,55.15
2022-09-12T03:59:07.554Z,51.43
2022-09-12T04:01:38.296Z,55.33
2022-09-12T04:04:04.771Z,53.10
2022-09-12T04:06:31.822Z,56.42
2022-09-12T04:08:58.564Z,54.50
2022-09-12T04:11:25.033Z,48.53
2022-09-12T04:13:51.575Z,39.78
2022-09-12T04:16:18.662Z,37.10
2022-09-12T04:18:46.407Z,35.63
2022-09-12T04:21:18.820Z,33.00
2022-09-12T04:23:45.667Z,31.27
2022-09-12T04:26:13.697Z,31.85
2022-09-12T04:28:40.929Z,35.47
2022-09-12T04:31:12.276Z,34.28
2022-09-12T04:33:39.570Z,39.33
2022-09-12T04:36:08.531Z,37.33
2022-09-12T04:38:36.425Z,43.20
2022-09-12T04:41:27.518Z,42.65
2022-09-12T04:44:02.315Z,47.00
2022-09-12T04:46:31.212Z,45.67
2022-09-12T04:48:57.961Z,48.73
2022-09-12T04:51:28.630Z,46.88
2022-09-12T04:54:00.750Z,64.53
2022-09-12T04:56:29.205Z,61.85
2022-09-12T04:59:00.702Z,60.03
2022-09-12T05:01:28.820Z,61.47
2022-09-12T05:03:58.062Z,50.72
2022-09-12T05:06:27.701Z,59.83
2022-09-12T05:08:55.971Z,73.40
2022-09-12T05:11:30.324Z,72.70
2022-09-12T05:14:04.155Z,78.40
2022-09-12T05:16:32.122Z,84.88
2022-09-12T05:18:58.958Z,81.60
2022-09-12T05:21:26.852Z,78.25
2022-09-12T05:24:00.110Z,79.72
2022-09-12T05:26:26.935Z,79.97
2022-09-12T05:28:54.098Z,88.63
2022-09-12T05:31:26.269Z,91.78
2022-09-12T05:33:54.425Z,86.97
2022-09-12T05:36:24.498Z,96.97
2022-09-12T05:38:51.271Z,93.20
2022-09-12T05:41:24.708Z,99.63
2022-09-12T05:43:56.911Z,103.25
2022-09-12T05:46:26.415Z,90.60
2022-09-12T05:48:56.351Z,91.70
2022-09-12T05:51:28.803Z,86.27
2022-09-12T05:53:57.936Z,86.95
2022-09-12T05:56:28.831Z,97.10
2022-09-12T05:58:58.800Z,85.43
2022-09-12T06:01:27.154Z,82.30
2022-09-12T06:03:55.915Z,84.83
2022-09-12T06:06:24.780Z,89.72
2022-09-12T06:08:53.077Z,83.47
2022-09-12T06:11:22.034Z,88.75
2022-09-12T06:13:49.349Z,88.32
2022-09-12T06:16:19.804Z,92.43
2022-09-12T06:18:51.913Z,95.88
2022-09-12T06:21:19.087Z,99.55
2022-09-12T06:23:47.044Z,87.88
2022-09-12T06:26:16.180Z,100.55
2022-09-12T06:28:44.996Z,99.80
2022-09-12T06:31:20.626Z,89.68
2022-09-12T06:33:50.244Z,82.18
2022-09-12T06:36:22.754Z,87.30
2022-09-12T06:39:04.029Z,80.10
2022-09-12T06:41:31.879Z,77.13
2022-09-12T06:43:59.661Z,82.70
2022-09-12T06:46:27.345Z,87.63
2022-09-12T06:48:56.417Z,79.68
2022-09-12T06:51:23.460Z,68.28
2022-09-12T06:53:50.275Z,77.50
2022-09-12T06:56:19.826Z,69.28
2022-09-12T06:58:48.038Z,72.95
2022-09-12T07:01:22.952Z,58.67
2022-09-12T07:03:55.099Z,53.75
2022-09-12T07:06:24.593Z,48.27
2022-09-12T07:08:51.195Z,43.45
2022-09-12T07:11:22.787Z,44.20
2022-09-12T07:13:52.464Z,37.10
2022-09-12T07:16:20.258Z,35.70
2022-09-12T07:18:55.039Z,33.63
2022-09-12T07:21:22.042Z,28.45
2022-09-12T07:23:49.217Z,38.58
2022-09-12T07:26:16.742Z,34.08
2022-09-12T07:28:43.893Z,30.45
2022-09-12T07:31:16.063Z,30.67
2022-09-12T07:33:43.641Z,30.90
2022-09-12T07:36:16.255Z,31.67
2022-09-12T07:38:43.995Z,24.15
2022-09-12T07:41:23.306Z,25.35
2022-09-12T07:43:58.282Z,22.83
2022-09-12T07:46:25.880Z,24.25
2022-09-12T07:48:53.540Z,23.48
2022-09-12T07:51:20.647Z,24.10
2022-09-12T07:53:48.922Z,19.40
2022-09-12T07:56:16.637Z,19.03
2022-09-12T07:58:44.155Z,19.83
2022-09-12T08:01:13.127Z,19.92
2022-09-12T08:03:40.985Z,20.27
2022-09-12T08:06:13.889Z,22.52
2022-09-12T08:08:41.680Z,20.67
2022-09-12T08:11:10.997Z,17.20
2022-09-12T08:13:39.615Z,19.75
2022-09-12T08:16:12.152Z,17.95
2022-09-12T08:18:39.409Z,18.35
2022-09-12T08:21:10.029Z,21.77
2022-09-12T08:23:36.722Z,17.17
2022-09-12T08:26:06.327Z,17.70
2022-09-12T08:28:35.080Z,17.52
2022-09-12T08:31:06.854Z,17.13
2022-09-12T08:33:34.139Z,15.30
2022-09-12T08:36:09.954Z,14.55
2022-09-12T08:38:38.215Z,13.90
2022-09-12T08:41:18.758Z,13.02
2022-09-12T08:43:54.508Z,15.52
2022-09-12T08:46:32.332Z,11.40
2022-09-12T08:49:01.519Z,13.95
2022-09-12T08:51:29.667Z,11.70
2022-09-12T08:53:57.706Z,13.00
2022-09-12T08:56:31.580Z,11.27
2022-09-12T08:58:58.847Z,13.80
2022-09-12T09:01:45.311Z,12.80
2022-09-12T09:04:36.267Z,13.30
2022-09-12T09:07:38.600Z,12.27
2022-09-12T09:10:24.312Z,10.30
2022-09-12T09:13:02.576Z,14.27
2022-09-12T09:15:31.864Z,11.38
2022-09-12T09:18:21.139Z,10.70
2022-09-12T09:20:57.553Z,9.68
2022-09-12T09:23:30.864Z,10.98
2022-09-12T09:26:05.021Z,10.20
2022-09-12T09:28:35.847Z,8.65
2022-09-12T09:31:02.928Z,13.13
2022-09-12T09:33:34.942Z,9.38
2022-09-12T09:36:17.065Z,11.75
2022-09-12T09:38:50.487Z,11.50
2022-09-12T09:41:50.929Z,11.05
2022-09-12T09:44:17.986Z,10.32
2022-09-12T09:46:44.570Z,10.80
2022-09-12T09:49:14.721Z,12.07
2022-09-12T09:51:42.789Z,12.70
2022-09-12T09:54:40.187Z,11.65
2022-09-12T09:57:35.888Z,11.30
2022-09-12T10:00:26.990Z,15.50
2022-09-12T10:03:03.060Z,12.27
2022-09-12T10:05:30.909Z,13.67
2022-09-12T10:07:58.445Z,12.95
2022-09-12T10:10:25.514Z,11.10
2022-09-12T10:13:07.636Z,14.60
2022-09-12T10:15:34.782Z,13.45
2022-09-12T10:18:03.094Z,17.03
2022-09-12T10:20:42.976Z,13.35
2022-09-12T10:23:18.634Z,11.70
2022-09-12T10:25:53.726Z,14.60
2022-09-12T10:28:25.610Z,14.77
2022-09-12T10:30:54.734Z,12.13
2022-09-12T10:33:24.463Z,14.02
2022-09-12T10:35:54.012Z,13.25
2022-09-12T10:38:32.657Z,11.13
2022-09-12T10:41:10.551Z,11.57
2022-09-12T10:43:39.218Z,11.97
2022-09-12T10:46:14.712Z,10.88
2022-09-12T10:48:43.016Z,11.70
2022-09-12T10:51:28.119Z,11.52
2022-09-12T10:54:00.035Z,10.13
2022-09-12T10:56:38.662Z,11.03
2022-09-12T10:59:21.707Z,9.60
2022-09-12T11:02:01.405Z,13.27
2022-09-12T11:04:46.580Z,9.00
2022-09-12T11:07:47.246Z,11.05
2022-09-12T11:10:38.002Z,12.63
2022-09-12T11:13:32.965Z,12.63
2022-09-12T11:16:42.095Z,11.00
2022-09-12T11:19:27.914Z,12.85
2022-09-12T11:22:13.131Z,11.05
2022-09-12T11:24:53.055Z,14.73
2022-09-12T11:27:48.516Z,13.93
2022-09-12T11:30:17.544Z,10.13
2022-09-12T11:33:02.470Z,12.68
2022-09-12T11:35:31.561Z,9.93
2022-09-12T11:38:27.585Z,9.83
2022-09-12T11:41:09.705Z,8.40
2022-09-12T11:43:42.117Z,12.55
2022-09-12T11:46:25.582Z,8.55
2022-09-12T11:48:52.103Z,10.23
2022-09-12T11:51:24.566Z,11.77
2022-09-12T11:54:05.136Z,12.60
2022-09-12T11:56:31.655Z,12.80
2022-09-12T11:59:15.574Z,11.35
2022-09-12T12:01:48.580Z,8.73
2022-09-12T12:04:20.627Z,9.63
2022-09-12T12:06:55.354Z,9.82
2022-09-12T12:09:22.392Z,10.48
2022-09-12T12:11:53.755Z,11.77
2022-09-12T12:14:25.053Z,12.05
2022-09-12T12:16:51.701Z,11.07
2022-09-12T12:19:18.257Z,10.27
2022-09-12T12:21:47.876Z,11.48
2022-09-12T12:24:16.563Z,10.52
2022-09-12T12:26:57.210Z,13.35
2022-09-12T12:29:23.611Z,10.07
2022-09-12T12:31:59.289Z,8.98
2022-09-12T12:34:31.973Z,9.57
2022-09-12T12:37:03.150Z,9.35
2022-09-12T12:39:31.994Z,11.48
2022-09-12T12:41:59.582Z,10.73
2022-09-12T12:44:44.463Z,12.23
2022-09-12T12:47:22.548Z,10.73
2022-09-12T12:50:10.364Z,9.93
2022-09-12T12:52:48.046Z,9.70
2022-09-12T12:55:31.890Z,9.97
2022-09-12T12:58:03.604Z,10.25
2022-09-12T13:00:35.199Z,10.15
2022-09-12T13:03:02.070Z,8.65
2022-09-12T13:05:38.349Z,10.93
2022-09-12T13:08:07.730Z,9.20
2022-09-12T13:10:34.680Z,9.27
2022-09-12T13:13:05.331Z,8.63
2022-09-12T13:15:37.635Z,9.10
2022-09-12T13:18:07.538Z,8.18
2022-09-12T13:20:45.081Z,7.57
2022-09-12T13:23:28.900Z,8.57
2022-09-12T13:25:57.946Z,9.25
2022-09-12T13:28:27.635Z,8.10
2022-09-12T13:31:06.330Z,9.23
2022-09-12T13:33:32.964Z,11.10
2022-09-12T13:36:09.978Z,7.63
2022-09-12T13:39:02.154Z,9.20
2022-09-12T13:41:34.513Z,7.93
2022-09-12T13:44:02.550Z,6.95
2022-09-12T13:46:33.935Z,17.87
2022-09-12T13:49:07.078Z,7.25
2022-09-12T13:51:33.804Z,6.38
2022-09-12T13:54:05.270Z,10.05
2022-09-12T13:56:32.131Z,8.20
2022-09-12T13:59:01.309Z,6.20
2022-09-12T14:01:40.344Z,5.93
2022-09-12T14:04:39.896Z,5.10
2022-09-12T14:07:15.289Z,5.53
2022-09-12T14:09:45.549Z,8.00
2022-09-12T14:12:34.972Z,6.13
2022-09-12T14:15:01.708Z,10.88
2022-09-12T14:17:31.659Z,9.57
2022-09-12T14:20:05.076Z,6.20
2022-09-12T14:22:34.168Z,5.72
2022-09-12T14:25:02.208Z,7.27
2022-09-12T14:27:37.323Z,9.23
2022-09-12T14:30:09.173Z,5.32
2022-09-12T14:32:36.142Z,8.15
2022-09-12T14:35:12.008Z,9.18
2022-09-12T14:37:39.997Z,8.67
2022-09-12T14:40:19.103Z,7.53
2022-09-12T14:42:46.844Z,7.30
2022-09-12T14:45:25.390Z,8.07
2022-09-12T14:47:53.308Z,6.43
2022-09-12T14:50:24.534Z,8.13
2022-09-12T14:53:20.195Z,7.68
2022-09-12T14:55:57.975Z,7.95
2022-09-12T14:58:27.045Z,9.45
2022-09-12T15:01:02.551Z,7.40
2022-09-12T15:03:30.738Z,6.97
2022-09-12T15:05:58.498Z,6.90
2022-09-12T15:08:25.904Z,7.38
2022-09-12T15:10:53.035Z,7.13
2022-09-12T15:13:22.190Z,8.63
2022-09-12T15:15:52.096Z,6.80
2022-09-12T15:18:19.933Z,6.22
2022-09-12T15:20:48.832Z,5.60
2022-09-12T15:23:17.583Z,7.30
2022-09-12T15:25:44.036Z,7.07
2022-09-12T15:28:18.329Z,8.87
2022-09-12T15:30:46.327Z,7.32
2022-09-12T15:33:12.802Z,10.45
2022-09-12T15:35:39.560Z,6.10
2022-09-12T15:38:06.247Z,6.28
2022-09-12T15:40:32.700Z,6.23
2022-09-12T15:42:59.186Z,5.40
2022-09-12T15:45:34.100Z,5.80
2022-09-12T15:48:01.253Z,5.80
2022-09-12T15:50:28.142Z,6.53
2022-09-12T15:52:55.971Z,6.60
2022-09-12T15:55:27.668Z,6.18
2022-09-12T15:57:54.432Z,6.13
2022-09-12T16:00:21.645Z,5.95
2022-09-12T16:02:50.994Z,6.53
2022-09-12T16:05:26.017Z,7.70
2022-09-12T16:07:54.001Z,9.63
2022-09-12T16:10:27.786Z,8.00
2022-09-12T16:12:54.575Z,7.32
2022-09-12T16:15:23.760Z,6.32
2022-09-12T16:17:50.896Z,7.37
2022-09-12T16:20:19.202Z,8.63
2022-09-12T16:22:45.805Z,8.20
2022-09-12T16:25:12.472Z,8.63
2022-09-12T16:27:39.267Z,5.50
2022-09-12T16:30:07.208Z,6.23
2022-09-12T16:32:33.769Z,6.75
2022-09-12T16:35:00.454Z,5.97
2022-09-12T16:37:26.911Z,6.50
2022-09-12T16:39:53.690Z,8.40
2022-09-12T16:42:20.269Z,6.70
2022-09-12T16:44:47.200Z,7.00
2022-09-12T16:47:14.592Z,4.97
2022-09-12T16:49:41.142Z,5.32
2022-09-12T16:52:08.132Z,5.32
2022-09-12T16:54:35.022Z,5.60
2022-09-12T16:57:01.608Z,5.28
2022-09-12T16:59:28.086Z,4.70
2022-09-12T17:01:54.692Z,6.30
2022-09-12T17:04:23.548Z,5.25
2022-09-12T17:06:50.582Z,5.50
2022-09-12T17:09:18.764Z,6.75
2022-09-12T17:11:50.347Z,8.10
2022-09-12T17:14:17.196Z,5.45
2022-09-12T17:16:51.434Z,7.03
2022-09-12T17:19:22.726Z,9.43
2022-09-12T17:21:50.123Z,5.50
2022-09-12T17:24:17.611Z,6.32
2022-09-12T17:26:44.660Z,5.65
2022-09-12T17:29:12.913Z,6.82
2022-09-12T17:31:40.248Z,6.90
2022-09-12T17:34:07.165Z,6.75
2022-09-12T17:36:35.140Z,7.78
2022-09-12T17:39:03.836Z,6.70
2022-09-12T17:41:34.567Z,6.80
2022-09-12T17:44:02.969Z,4.87
2022-09-12T17:46:38.006Z,6.72
2022-09-12T17:49:08.221Z,6.50
2022-09-12T17:51:35.195Z,6.63
2022-09-12T17:54:05.563Z,5.90
2022-09-12T17:56:33.494Z,6.57
2022-09-12T17:59:00.427Z,6.40
2022-09-12T18:01:47.006Z,6.13
2022-09-12T18:04:13.988Z,7.72
2022-09-12T18:06:40.894Z,9.20
2022-09-12T18:09:09.404Z,7.70
2022-09-12T18:11:36.153Z,8.00
2022-09-12T18:14:02.894Z,6.97
2022-09-12T18:16:29.506Z,7.38
2022-09-12T18:18:56.020Z,7.03
2022-09-12T18:21:22.540Z,6.43
2022-09-12T18:23:49.098Z,5.45
2022-09-12T18:26:15.582Z,5.93
2022-09-12T18:28:44.151Z,6.05
2022-09-12T18:31:14.461Z,8.63
2022-09-12T18:33:41.824Z,8.13
2022-09-12T18:36:10.940Z,8.43
2022-09-12T18:38:38.193Z,8.38
2022-09-12T18:41:10.538Z,8.70
2022-09-12T18:43:37.743Z,8.32
2022-09-12T18:46:09.903Z,10.30
2022-09-12T18:48:37.043Z,8.48
2022-09-12T18:51:09.985Z,6.93
2022-09-12T18:53:37.440Z,10.20
2022-09-12T18:56:15.683Z,7.13
2022-09-12T18:58:43.441Z,7.28
2022-09-12T19:01:21.977Z,7.15
2022-09-12T19:03:49.562Z,12.27
2022-09-12T19:06:21.185Z,9.23
2022-09-12T19:08:49.053Z,9.65
2022-09-12T19:11:16.055Z,10.90
2022-09-12T19:13:44.876Z,9.50
2022-09-12T19:16:17.387Z,10.20
2022-09-12T19:18:44.369Z,12.07
2022-09-12T19:21:15.699Z,11.38
2022-09-12T19:23:42.594Z,12.82
2022-09-12T19:26:14.150Z,11.82
2022-09-12T19:28:40.856Z,11.82
2022-09-12T19:31:09.760Z,8.50
2022-09-12T19:33:36.995Z,11.07
2022-09-12T19:36:40.858Z,9.68
2022-09-12T19:39:01.639Z,11.48
2022-09-12T19:41:28.308Z,9.75
2022-09-12T19:43:56.150Z,10.50
2022-09-12T19:46:24.253Z,12.35
2022-09-12T19:48:52.223Z,12.05
2022-09-12T19:51:20.453Z,12.30
2022-09-12T19:53:47.710Z,10.48
2022-09-12T19:56:15.071Z,10.87
2022-09-12T19:58:44.283Z,9.40
2022-09-12T20:01:19.437Z,9.77
2022-09-12T20:03:46.623Z,8.95
2022-09-12T20:06:17.684Z,10.82
2022-09-12T20:08:45.770Z,9.97
2022-09-12T20:11:14.710Z,11.00
2022-09-12T20:13:41.589Z,12.10
2022-09-12T20:16:21.020Z,9.13
2022-09-12T20:18:49.414Z,9.32
2022-09-12T20:21:20.852Z,7.67
2022-09-12T20:23:47.334Z,10.40
2022-09-12T20:26:13.944Z,11.15
2022-09-12T20:28:41.544Z,9.75
2022-09-12T20:31:12.118Z,11.38
2022-09-12T20:33:39.322Z,10.20
2022-09-12T20:36:14.540Z,10.70
2022-09-12T20:38:42.492Z,9.95
2022-09-12T20:41:10.934Z,10.30
2022-09-12T20:43:38.686Z,9.80
2022-09-12T20:46:09.771Z,10.13
2022-09-12T20:48:37.007Z,10.98
2022-09-12T20:51:04.329Z,11.95
2022-09-12T20:53:34.811Z,11.82
2022-09-12T20:56:03.015Z,12.20
2022-09-12T20:58:29.536Z,11.60
2022-09-12T21:00:56.037Z,11.63
2022-09-12T21:03:22.669Z,10.88
2022-09-12T21:05:49.150Z,11.13
2022-09-12T21:08:15.654Z,10.13
2022-09-12T21:10:43.142Z,13.83
2022-09-12T21:13:10.766Z,9.38
2022-09-12T21:15:38.574Z,8.90
2022-09-12T21:18:05.341Z,9.00
2022-09-12T21:20:32.444Z,9.25
2022-09-12T21:22:59.262Z,8.50
2022-09-12T21:25:25.800Z,9.93
2022-09-12T21:27:52.241Z,10.30
2022-09-12T21:30:18.719Z,9.80
2022-09-12T21:32:45.210Z,8.85
2022-09-12T21:35:11.710Z,9.23
2022-09-12T21:37:38.158Z,9.80
2022-09-12T21:40:05.147Z,9.23
2022-09-12T21:42:31.844Z,9.20
2022-09-12T21:44:58.338Z,9.30
2022-09-12T21:47:24.842Z,12.00
2022-09-12T21:49:51.361Z,8.60
2022-09-12T21:52:17.822Z,10.60
2022-09-12T21:54:44.303Z,8.75
2022-09-12T21:57:10.760Z,8.88
2022-09-12T21:59:37.294Z,11.23
2022-09-12T22:02:03.960Z,13.07
2022-09-12T22:04:32.833Z,12.05
2022-09-12T22:06:59.306Z,10.82
2022-09-12T22:09:25.866Z,12.98
2022-09-12T22:11:52.380Z,12.00
2022-09-12T22:14:19.008Z,11.35
2022-09-12T22:16:45.486Z,11.40
2022-09-12T22:19:12.951Z,12.30
2022-09-12T22:21:59.374Z,10.85
2022-09-12T22:24:28.691Z,11.00
2022-09-12T22:26:56.058Z,13.13
2022-09-12T22:29:22.966Z,9.75
2022-09-12T22:31:49.509Z,10.93
2022-09-12T22:34:16.204Z,12.27
2022-09-12T22:36:42.753Z,10.07
2022-09-12T22:39:09.224Z,10.20
2022-09-12T22:41:35.741Z,10.48
2022-09-12T22:44:02.349Z,10.63
2022-09-12T22:46:30.013Z,9.48
2022-09-12T22:48:56.531Z,12.73
2022-09-12T22:51:23.032Z,10.48
2022-09-12T22:53:49.803Z,11.65
2022-09-12T22:56:16.243Z,9.65
2022-09-12T22:58:43.562Z,9.50
2022-09-12T23:01:10.797Z,9.40
2022-09-12T23:03:37.598Z,12.95
2022-09-12T23:06:05.580Z,9.98
2022-09-12T23:08:33.786Z,8.93
2022-09-12T23:11:13.034Z,10.35
2022-09-12T23:13:42.670Z,10.13
2022-09-12T23:16:17.503Z,11.18
2022-09-12T23:18:44.374Z,9.40
2022-09-12T23:21:12.557Z,10.63
2022-09-12T23:23:39.495Z,8.48
2022-09-12T23:26:10.583Z,8.50
2022-09-12T23:28:39.147Z,8.75
2022-09-12T23:31:05.926Z,8.52
2022-09-12T23:33:33.173Z,10.43
2022-09-12T23:36:02.183Z,10.13
2022-09-12T23:38:30.723Z,10.37
2022-09-12T23:40:58.060Z,9.07
2022-09-12T23:43:24.651Z,7.93
2022-09-12T23:45:51.405Z,14.48
2022-09-12T23:48:18.486Z,10.10
2022-09-12T23:50:46.679Z,9.03
2022-09-12T23:53:14.968Z,9.85
2022-09-12T23:55:42.399Z,10.18
2022-09-12T23:58:09.147Z,11.55
